sensor_id;sensor_type;location;lat;lon;timestamp;P1;durP1;ratioP1;P2;durP2;ratioP2
69573;SDS011;62840;52.366;5.980;2022-12-29T00:00:03;5.28;;;1.95;;
69573;SDS011;62840;52.366;5.980;2022-12-29T00:02:32;5.28;;;2.17;;
69573;SDS011;62840;52.366;5.980;2022-12-29T00:04:58;4.33;;;2.33;;
69573;SDS011;62840;52.366;5.980;2022-12-29T00:07:23;4.70;;;2.20;;
69573;SDS011;62840;52.366;5.980;2022-12-29T00:09:49;4.67;;;2.37;;
69573;SDS011;62840;52.366;5.980;2022-12-29T00:12:15;4.20;;;2.50;;
69573;SDS011;62840;52.366;5.980;2022-12-29T00:14:43;4.23;;;2.03;;
69573;SDS011;62840;52.366;5.980;2022-12-29T00:17:09;4.50;;;2.00;;
69573;SDS011;62840;52.366;5.980;2022-12-29T00:19:34;4.70;;;2.30;;
69573;SDS011;62840;52.366;5.980;2022-12-29T00:22:00;4.00;;;1.95;;
69573;SDS011;62840;52.366;5.980;2022-12-29T00:24:26;3.90;;;1.88;;
69573;SDS011;62840;52.366;5.980;2022-12-29T00:29:23;3.58;;;1.70;;
69573;SDS011;62840;52.366;5.980;2022-12-29T00:31:51;4.37;;;2.17;;
69573;SDS011;62840;52.366;5.980;2022-12-29T00:34:17;4.18;;;2.03;;
69573;SDS011;62840;52.366;5.980;2022-12-29T00:36:42;4.57;;;2.10;;
69573;SDS011;62840;52.366;5.980;2022-12-29T00:39:10;3.80;;;1.70;;
69573;SDS011;62840;52.366;5.980;2022-12-29T00:41:40;3.85;;;1.90;;
69573;SDS011;62840;52.366;5.980;2022-12-29T00:44:06;4.43;;;1.90;;
69573;SDS011;62840;52.366;5.980;2022-12-29T00:46:35;3.72;;;1.60;;
69573;SDS011;62840;52.366;5.980;2022-12-29T00:49:04;3.93;;;1.53;;
69573;SDS011;62840;52.366;5.980;2022-12-29T00:51:31;4.38;;;1.70;;
69573;SDS011;62840;52.366;5.980;2022-12-29T00:53:57;3.63;;;1.98;;
69573;SDS011;62840;52.366;5.980;2022-12-29T00:56:23;4.10;;;1.87;;
69573;SDS011;62840;52.366;5.980;2022-12-29T00:58:48;4.95;;;1.80;;
69573;SDS011;62840;52.366;5.980;2022-12-29T01:01:14;3.73;;;1.77;;
69573;SDS011;62840;52.366;5.980;2022-12-29T01:03:40;4.10;;;1.42;;
69573;SDS011;62840;52.366;5.980;2022-12-29T01:06:09;5.40;;;2.20;;
69573;SDS011;62840;52.366;5.980;2022-12-29T01:08:36;4.03;;;1.75;;
69573;SDS011;62840;52.366;5.980;2022-12-29T01:11:03;4.67;;;1.90;;
69573;SDS011;62840;52.366;5.980;2022-12-29T01:13:33;3.58;;;1.40;;
69573;SDS011;62840;52.366;5.980;2022-12-29T01:16:00;3.72;;;1.80;;
69573;SDS011;62840;52.366;5.980;2022-12-29T01:18:27;3.35;;;1.60;;
69573;SDS011;62840;52.366;5.980;2022-12-29T01:20:57;3.33;;;1.75;;
69573;SDS011;62840;52.366;5.980;2022-12-29T01:23:27;3.97;;;1.67;;
69573;SDS011;62840;52.366;5.980;2022-12-29T01:25:54;3.83;;;1.80;;
69573;SDS011;62840;52.366;5.980;2022-12-29T01:28:20;5.07;;;1.48;;
69573;SDS011;62840;52.366;5.980;2022-12-29T01:30:47;4.93;;;1.40;;
69573;SDS011;62840;52.366;5.980;2022-12-29T01:33:13;3.33;;;1.53;;
69573;SDS011;62840;52.366;5.980;2022-12-29T01:35:39;5.40;;;1.77;;
69573;SDS011;62840;52.366;5.980;2022-12-29T01:38:05;4.93;;;1.50;;
69573;SDS011;62840;52.366;5.980;2022-12-29T01:40:33;4.60;;;1.67;;
69573;SDS011;62840;52.366;5.980;2022-12-29T01:42:59;3.38;;;1.45;;
69573;SDS011;62840;52.366;5.980;2022-12-29T01:45:25;4.60;;;1.80;;
69573;SDS011;62840;52.366;5.980;2022-12-29T01:47:52;3.70;;;1.70;;
69573;SDS011;62840;52.366;5.980;2022-12-29T01:50:23;3.47;;;1.30;;
69573;SDS011;62840;52.366;5.980;2022-12-29T01:52:54;3.22;;;1.55;;
69573;SDS011;62840;52.366;5.980;2022-12-29T01:55:25;3.60;;;1.42;;
69573;SDS011;62840;52.366;5.980;2022-12-29T01:57:57;4.93;;;1.23;;
69573;SDS011;62840;52.366;5.980;2022-12-29T02:00:29;3.50;;;1.23;;
69573;SDS011;62840;52.366;5.980;2022-12-29T02:02:54;3.08;;;1.25;;
69573;SDS011;62840;52.366;5.980;2022-12-29T02:05:23;3.03;;;1.10;;
69573;SDS011;62840;52.366;5.980;2022-12-29T02:07:57;3.07;;;1.10;;
69573;SDS011;62840;52.366;5.980;2022-12-29T02:10:24;3.53;;;1.30;;
69573;SDS011;62840;52.366;5.980;2022-12-29T02:12:57;3.53;;;1.23;;
69573;SDS011;62840;52.366;5.980;2022-12-29T02:15:25;3.08;;;1.05;;
69573;SDS011;62840;52.366;5.980;2022-12-29T02:18:14;2.90;;;1.20;;
69573;SDS011;62840;52.366;5.980;2022-12-29T02:21:03;2.60;;;1.00;;
69573;SDS011;62840;52.366;5.980;2022-12-29T02:27:43;2.95;;;1.27;;
69573;SDS011;62840;52.366;5.980;2022-12-29T02:33:21;3.58;;;1.25;;
69573;SDS011;62840;52.366;5.980;2022-12-29T02:36:05;2.70;;;1.00;;
69573;SDS011;62840;52.366;5.980;2022-12-29T02:38:46;2.97;;;1.10;;
69573;SDS011;62840;52.366;5.980;2022-12-29T02:41:32;2.80;;;1.13;;
69573;SDS011;62840;52.366;5.980;2022-12-29T02:44:10;3.35;;;1.35;;
69573;SDS011;62840;52.366;5.980;2022-12-29T02:46:51;2.90;;;1.35;;
69573;SDS011;62840;52.366;5.980;2022-12-29T02:49:26;3.50;;;1.50;;
69573;SDS011;62840;52.366;5.980;2022-12-29T02:51:59;3.33;;;1.55;;
69573;SDS011;62840;52.366;5.980;2022-12-29T02:54:30;3.50;;;1.80;;
69573;SDS011;62840;52.366;5.980;2022-12-29T02:56:57;3.13;;;1.42;;
69573;SDS011;62840;52.366;5.980;2022-12-29T02:59:23;3.60;;;1.50;;
69573;SDS011;62840;52.366;5.980;2022-12-29T03:01:59;3.45;;;1.70;;
69573;SDS011;62840;52.366;5.980;2022-12-29T03:07:44;2.80;;;1.13;;
69573;SDS011;62840;52.366;5.980;2022-12-29T03:10:25;3.50;;;1.30;;
69573;SDS011;62840;52.366;5.980;2022-12-29T03:13:08;4.35;;;1.30;;
69573;SDS011;62840;52.366;5.980;2022-12-29T03:15:50;3.40;;;1.35;;
69573;SDS011;62840;52.366;5.980;2022-12-29T03:18:29;3.33;;;1.10;;
69573;SDS011;62840;52.366;5.980;2022-12-29T03:21:11;3.33;;;1.13;;
69573;SDS011;62840;52.366;5.980;2022-12-29T03:23:43;3.88;;;1.15;;
69573;SDS011;62840;52.366;5.980;2022-12-29T03:26:14;3.10;;;1.30;;
69573;SDS011;62840;52.366;5.980;2022-12-29T03:28:45;3.00;;;0.98;;
69573;SDS011;62840;52.366;5.980;2022-12-29T03:31:16;3.13;;;1.00;;
69573;SDS011;62840;52.366;5.980;2022-12-29T03:33:47;2.70;;;1.13;;
69573;SDS011;62840;52.366;5.980;2022-12-29T03:36:17;4.25;;;1.20;;
69573;SDS011;62840;52.366;5.980;2022-12-29T03:38:53;4.32;;;1.08;;
69573;SDS011;62840;52.366;5.980;2022-12-29T03:41:28;3.60;;;1.00;;
69573;SDS011;62840;52.366;5.980;2022-12-29T03:43:58;3.17;;;0.95;;
69573;SDS011;62840;52.366;5.980;2022-12-29T03:46:23;2.77;;;0.90;;
69573;SDS011;62840;52.366;5.980;2022-12-29T03:48:52;2.45;;;0.80;;
69573;SDS011;62840;52.366;5.980;2022-12-29T03:51:18;2.80;;;1.00;;
69573;SDS011;62840;52.366;5.980;2022-12-29T03:53:43;3.80;;;1.10;;
69573;SDS011;62840;52.366;5.980;2022-12-29T03:56:09;2.65;;;0.90;;
69573;SDS011;62840;52.366;5.980;2022-12-29T03:58:35;2.63;;;0.93;;
69573;SDS011;62840;52.366;5.980;2022-12-29T04:01:01;3.53;;;1.00;;
69573;SDS011;62840;52.366;5.980;2022-12-29T04:03:26;4.07;;;1.33;;
69573;SDS011;62840;52.366;5.980;2022-12-29T04:05:55;3.53;;;1.10;;
69573;SDS011;62840;52.366;5.980;2022-12-29T04:08:20;3.15;;;1.10;;
69573;SDS011;62840;52.366;5.980;2022-12-29T04:10:47;3.63;;;1.17;;
69573;SDS011;62840;52.366;5.980;2022-12-29T04:13:13;3.63;;;1.25;;
69573;SDS011;62840;52.366;5.980;2022-12-29T04:15:39;3.78;;;1.08;;
69573;SDS011;62840;52.366;5.980;2022-12-29T04:18:05;3.33;;;1.17;;
69573;SDS011;62840;52.366;5.980;2022-12-29T04:20:30;3.45;;;1.20;;
69573;SDS011;62840;52.366;5.980;2022-12-29T04:23:02;4.53;;;1.20;;
69573;SDS011;62840;52.366;5.980;2022-12-29T04:25:30;3.45;;;1.20;;
69573;SDS011;62840;52.366;5.980;2022-12-29T04:27:56;2.72;;;1.00;;
69573;SDS011;62840;52.366;5.980;2022-12-29T04:30:22;3.80;;;1.10;;
69573;SDS011;62840;52.366;5.980;2022-12-29T04:32:48;3.88;;;1.20;;
69573;SDS011;62840;52.366;5.980;2022-12-29T04:35:14;3.00;;;1.10;;
69573;SDS011;62840;52.366;5.980;2022-12-29T04:37:40;4.40;;;1.30;;
69573;SDS011;62840;52.366;5.980;2022-12-29T04:40:09;3.90;;;1.30;;
69573;SDS011;62840;52.366;5.980;2022-12-29T04:42:37;3.10;;;1.10;;
69573;SDS011;62840;52.366;5.980;2022-12-29T04:45:02;3.30;;;1.30;;
69573;SDS011;62840;52.366;5.980;2022-12-29T04:47:29;3.42;;;1.40;;
69573;SDS011;62840;52.366;5.980;2022-12-29T04:49:55;4.18;;;1.33;;
69573;SDS011;62840;52.366;5.980;2022-12-29T04:52:21;4.07;;;1.20;;
69573;SDS011;62840;52.366;5.980;2022-12-29T04:54:46;4.20;;;1.30;;
69573;SDS011;62840;52.366;5.980;2022-12-29T04:57:15;3.92;;;1.55;;
69573;SDS011;62840;52.366;5.980;2022-12-29T04:59:40;3.00;;;1.13;;
69573;SDS011;62840;52.366;5.980;2022-12-29T05:02:06;3.00;;;1.13;;
69573;SDS011;62840;52.366;5.980;2022-12-29T05:04:32;5.10;;;1.50;;
69573;SDS011;62840;52.366;5.980;2022-12-29T05:06:58;4.05;;;1.17;;
69573;SDS011;62840;52.366;5.980;2022-12-29T05:09:23;3.63;;;1.05;;
69573;SDS011;62840;52.366;5.980;2022-12-29T05:11:49;3.13;;;0.80;;
69573;SDS011;62840;52.366;5.980;2022-12-29T05:14:17;3.70;;;0.90;;
69573;SDS011;62840;52.366;5.980;2022-12-29T05:16:43;5.35;;;1.20;;
69573;SDS011;62840;52.366;5.980;2022-12-29T05:19:09;3.80;;;0.90;;
69573;SDS011;62840;52.366;5.980;2022-12-29T05:21:35;5.75;;;0.93;;
69573;SDS011;62840;52.366;5.980;2022-12-29T05:24:00;3.20;;;1.10;;
69573;SDS011;62840;52.366;5.980;2022-12-29T05:26:26;2.43;;;0.67;;
69573;SDS011;62840;52.366;5.980;2022-12-29T05:28:52;5.35;;;1.23;;
69573;SDS011;62840;52.366;5.980;2022-12-29T05:31:20;4.73;;;1.00;;
69573;SDS011;62840;52.366;5.980;2022-12-29T05:33:46;5.25;;;1.20;;
69573;SDS011;62840;52.366;5.980;2022-12-29T05:36:12;3.58;;;1.08;;
69573;SDS011;62840;52.366;5.980;2022-12-29T05:38:38;5.10;;;0.90;;
69573;SDS011;62840;52.366;5.980;2022-12-29T05:41:04;2.90;;;0.80;;
69573;SDS011;62840;52.366;5.980;2022-12-29T05:43:30;4.00;;;1.00;;
69573;SDS011;62840;52.366;5.980;2022-12-29T05:45:55;5.32;;;1.15;;
69573;SDS011;62840;52.366;5.980;2022-12-29T05:48:25;7.20;;;1.58;;
69573;SDS011;62840;52.366;5.980;2022-12-29T05:50:51;4.45;;;0.95;;
69573;SDS011;62840;52.366;5.980;2022-12-29T05:53:18;4.32;;;1.13;;
69573;SDS011;62840;52.366;5.980;2022-12-29T05:55:46;5.40;;;0.88;;
69573;SDS011;62840;52.366;5.980;2022-12-29T05:58:12;4.78;;;0.93;;
69573;SDS011;62840;52.366;5.980;2022-12-29T06:00:38;5.05;;;1.05;;
69573;SDS011;62840;52.366;5.980;2022-12-29T06:03:05;4.28;;;1.10;;
69573;SDS011;62840;52.366;5.980;2022-12-29T06:05:33;5.63;;;1.30;;
69573;SDS011;62840;52.366;5.980;2022-12-29T06:07:59;6.90;;;1.27;;
69573;SDS011;62840;52.366;5.980;2022-12-29T06:10:25;3.60;;;1.15;;
69573;SDS011;62840;52.366;5.980;2022-12-29T06:12:52;5.85;;;1.30;;
69573;SDS011;62840;52.366;5.980;2022-12-29T06:15:18;5.82;;;1.92;;
69573;SDS011;62840;52.366;5.980;2022-12-29T06:17:44;6.27;;;1.20;;
69573;SDS011;62840;52.366;5.980;2022-12-29T06:20:10;7.68;;;1.02;;
69573;SDS011;62840;52.366;5.980;2022-12-29T06:22:38;7.63;;;1.30;;
69573;SDS011;62840;52.366;5.980;2022-12-29T06:25:04;7.43;;;1.08;;
69573;SDS011;62840;52.366;5.980;2022-12-29T06:27:30;8.98;;;1.50;;
69573;SDS011;62840;52.366;5.980;2022-12-29T06:29:56;7.47;;;1.20;;
69573;SDS011;62840;52.366;5.980;2022-12-29T06:32:22;4.73;;;0.90;;
69573;SDS011;62840;52.366;5.980;2022-12-29T06:34:48;6.57;;;1.00;;
69573;SDS011;62840;52.366;5.980;2022-12-29T06:37:14;4.47;;;1.00;;
69573;SDS011;62840;52.366;5.980;2022-12-29T06:39:42;4.15;;;0.88;;
69573;SDS011;62840;52.366;5.980;2022-12-29T06:42:08;5.72;;;1.48;;
69573;SDS011;62840;52.366;5.980;2022-12-29T06:44:34;8.02;;;1.08;;
69573;SDS011;62840;52.366;5.980;2022-12-29T06:47:00;5.53;;;1.27;;
69573;SDS011;62840;52.366;5.980;2022-12-29T06:49:25;4.83;;;1.10;;
69573;SDS011;62840;52.366;5.980;2022-12-29T06:51:51;5.22;;;1.27;;
69573;SDS011;62840;52.366;5.980;2022-12-29T06:54:17;6.47;;;1.43;;
69573;SDS011;62840;52.366;5.980;2022-12-29T06:56:45;5.60;;;1.20;;
69573;SDS011;62840;52.366;5.980;2022-12-29T06:59:11;3.60;;;0.80;;
69573;SDS011;62840;52.366;5.980;2022-12-29T07:01:37;4.73;;;0.90;;
69573;SDS011;62840;52.366;5.980;2022-12-29T07:04:03;7.13;;;1.40;;
69573;SDS011;62840;52.366;5.980;2022-12-29T07:06:28;5.22;;;1.10;;
69573;SDS011;62840;52.366;5.980;2022-12-29T07:08:54;4.30;;;0.87;;
69573;SDS011;62840;52.366;5.980;2022-12-29T07:11:20;7.47;;;1.20;;
69573;SDS011;62840;52.366;5.980;2022-12-29T07:13:49;6.20;;;0.90;;
69573;SDS011;62840;52.366;5.980;2022-12-29T07:16:15;7.88;;;1.10;;
69573;SDS011;62840;52.366;5.980;2022-12-29T07:18:41;5.93;;;1.48;;
69573;SDS011;62840;52.366;5.980;2022-12-29T07:21:07;6.07;;;0.80;;
69573;SDS011;62840;52.366;5.980;2022-12-29T07:23:33;6.45;;;1.20;;
69573;SDS011;62840;52.366;5.980;2022-12-29T07:26:00;4.80;;;1.03;;
69573;SDS011;62840;52.366;5.980;2022-12-29T07:28:26;5.00;;;1.20;;
69573;SDS011;62840;52.366;5.980;2022-12-29T07:30:54;4.53;;;1.27;;
69573;SDS011;62840;52.366;5.980;2022-12-29T07:33:20;5.47;;;1.52;;
69573;SDS011;62840;52.366;5.980;2022-12-29T07:35:46;3.15;;;1.10;;
69573;SDS011;62840;52.366;5.980;2022-12-29T07:38:12;3.95;;;1.23;;
69573;SDS011;62840;52.366;5.980;2022-12-29T07:40:40;6.67;;;1.30;;
69573;SDS011;62840;52.366;5.980;2022-12-29T07:43:06;4.32;;;0.88;;
69573;SDS011;62840;52.366;5.980;2022-12-29T07:45:32;4.75;;;1.00;;
69573;SDS011;62840;52.366;5.980;2022-12-29T07:48:00;4.00;;;1.10;;
69573;SDS011;62840;52.366;5.980;2022-12-29T07:50:26;5.10;;;0.95;;
69573;SDS011;62840;52.366;5.980;2022-12-29T07:52:52;4.72;;;0.80;;
69573;SDS011;62840;52.366;5.980;2022-12-29T07:55:17;4.13;;;1.05;;
69573;SDS011;62840;52.366;5.980;2022-12-29T07:57:43;4.37;;;0.80;;
69573;SDS011;62840;52.366;5.980;2022-12-29T08:00:09;4.43;;;0.70;;
69573;SDS011;62840;52.366;5.980;2022-12-29T08:02:36;7.05;;;1.17;;
69573;SDS011;62840;52.366;5.980;2022-12-29T08:05:05;4.93;;;0.87;;
69573;SDS011;62840;52.366;5.980;2022-12-29T08:07:32;5.82;;;1.50;;
69573;SDS011;62840;52.366;5.980;2022-12-29T08:09:57;4.55;;;1.25;;
69573;SDS011;62840;52.366;5.980;2022-12-29T08:12:23;8.33;;;1.07;;
69573;SDS011;62840;52.366;5.980;2022-12-29T08:14:49;4.03;;;0.60;;
69573;SDS011;62840;52.366;5.980;2022-12-29T08:17:14;6.03;;;0.80;;
69573;SDS011;62840;52.366;5.980;2022-12-29T08:19:40;4.90;;;1.05;;
69573;SDS011;62840;52.366;5.980;2022-12-29T08:22:09;4.57;;;1.00;;
69573;SDS011;62840;52.366;5.980;2022-12-29T08:24:34;4.20;;;0.85;;
69573;SDS011;62840;52.366;5.980;2022-12-29T08:27:00;8.40;;;1.30;;
69573;SDS011;62840;52.366;5.980;2022-12-29T08:29:26;6.03;;;1.05;;
69573;SDS011;62840;52.366;5.980;2022-12-29T08:31:52;2.85;;;0.98;;
69573;SDS011;62840;52.366;5.980;2022-12-29T08:34:17;4.07;;;0.80;;
69573;SDS011;62840;52.366;5.980;2022-12-29T08:36:43;6.30;;;1.40;;
69573;SDS011;62840;52.366;5.980;2022-12-29T08:39:11;3.07;;;0.90;;
69573;SDS011;62840;52.366;5.980;2022-12-29T08:41:37;5.15;;;1.10;;
69573;SDS011;62840;52.366;5.980;2022-12-29T08:44:03;5.90;;;1.10;;
69573;SDS011;62840;52.366;5.980;2022-12-29T08:46:29;5.18;;;1.45;;
69573;SDS011;62840;52.366;5.980;2022-12-29T08:48:55;6.47;;;1.60;;
69573;SDS011;62840;52.366;5.980;2022-12-29T08:51:21;4.87;;;1.27;;
69573;SDS011;62840;52.366;5.980;2022-12-29T08:53:46;4.88;;;1.00;;
69573;SDS011;62840;52.366;5.980;2022-12-29T08:56:15;5.73;;;1.30;;
69573;SDS011;62840;52.366;5.980;2022-12-29T08:58:41;3.92;;;1.10;;
69573;SDS011;62840;52.366;5.980;2022-12-29T09:01:06;6.38;;;1.17;;
69573;SDS011;62840;52.366;5.980;2022-12-29T09:03:35;6.43;;;1.17;;
69573;SDS011;62840;52.366;5.980;2022-12-29T09:06:01;5.03;;;1.13;;
69573;SDS011;62840;52.366;5.980;2022-12-29T09:08:26;4.38;;;1.10;;
69573;SDS011;62840;52.366;5.980;2022-12-29T09:10:52;4.23;;;1.00;;
69573;SDS011;62840;52.366;5.980;2022-12-29T09:13:21;6.32;;;1.30;;
69573;SDS011;62840;52.366;5.980;2022-12-29T09:15:46;8.13;;;1.40;;
69573;SDS011;62840;52.366;5.980;2022-12-29T09:18:12;6.33;;;1.10;;
69573;SDS011;62840;52.366;5.980;2022-12-29T09:20:38;6.50;;;1.20;;
69573;SDS011;62840;52.366;5.980;2022-12-29T09:23:04;5.33;;;0.90;;
69573;SDS011;62840;52.366;5.980;2022-12-29T09:25:30;6.93;;;1.13;;
69573;SDS011;62840;52.366;5.980;2022-12-29T09:27:55;4.60;;;1.10;;
69573;SDS011;62840;52.366;5.980;2022-12-29T09:30:24;5.80;;;1.10;;
69573;SDS011;62840;52.366;5.980;2022-12-29T09:32:50;5.35;;;0.80;;
69573;SDS011;62840;52.366;5.980;2022-12-29T09:35:15;6.73;;;1.20;;
69573;SDS011;62840;52.366;5.980;2022-12-29T09:37:41;6.65;;;1.25;;
69573;SDS011;62840;52.366;5.980;2022-12-29T09:40:09;9.35;;;1.38;;
69573;SDS011;62840;52.366;5.980;2022-12-29T09:42:55;5.80;;;0.95;;
69573;SDS011;62840;52.366;5.980;2022-12-29T09:45:45;5.03;;;1.33;;
69573;SDS011;62840;52.366;5.980;2022-12-29T09:48:25;5.30;;;1.13;;
69573;SDS011;62840;52.366;5.980;2022-12-29T09:50:56;5.40;;;0.90;;
69573;SDS011;62840;52.366;5.980;2022-12-29T09:53:29;5.38;;;1.33;;
69573;SDS011;62840;52.366;5.980;2022-12-29T09:56:03;4.50;;;1.15;;
69573;SDS011;62840;52.366;5.980;2022-12-29T09:58:39;5.63;;;1.35;;
69573;SDS011;62840;52.366;5.980;2022-12-29T10:01:21;5.57;;;1.10;;
69573;SDS011;62840;52.366;5.980;2022-12-29T10:03:57;8.02;;;1.33;;
69573;SDS011;62840;52.366;5.980;2022-12-29T10:06:25;5.75;;;1.30;;
69573;SDS011;62840;52.366;5.980;2022-12-29T10:09:02;4.43;;;0.93;;
69573;SDS011;62840;52.366;5.980;2022-12-29T10:11:47;7.63;;;1.17;;
69573;SDS011;62840;52.366;5.980;2022-12-29T10:14:42;4.37;;;0.90;;
69573;SDS011;62840;52.366;5.980;2022-12-29T10:17:29;7.22;;;1.10;;
69573;SDS011;62840;52.366;5.980;2022-12-29T10:20:12;5.05;;;1.33;;
69573;SDS011;62840;52.366;5.980;2022-12-29T10:23:05;6.07;;;1.05;;
69573;SDS011;62840;52.366;5.980;2022-12-29T10:25:49;5.75;;;1.42;;
69573;SDS011;62840;52.366;5.980;2022-12-29T10:28:20;5.70;;;1.10;;
69573;SDS011;62840;52.366;5.980;2022-12-29T10:30:49;5.70;;;1.10;;
69573;SDS011;62840;52.366;5.980;2022-12-29T10:33:21;4.45;;;1.20;;
69573;SDS011;62840;52.366;5.980;2022-12-29T10:35:54;6.25;;;1.48;;
69573;SDS011;62840;52.366;5.980;2022-12-29T10:38:23;3.65;;;1.17;;
69573;SDS011;62840;52.366;5.980;2022-12-29T10:41:00;5.57;;;1.10;;
69573;SDS011;62840;52.366;5.980;2022-12-29T10:43:38;3.60;;;1.17;;
69573;SDS011;62840;52.366;5.980;2022-12-29T10:46:12;5.88;;;1.35;;
69573;SDS011;62840;52.366;5.980;2022-12-29T10:48:45;5.03;;;1.48;;
69573;SDS011;62840;52.366;5.980;2022-12-29T10:51:11;5.10;;;1.10;;
69573;SDS011;62840;52.366;5.980;2022-12-29T10:53:47;5.97;;;1.33;;
69573;SDS011;62840;52.366;5.980;2022-12-29T10:56:21;7.68;;;1.00;;
69573;SDS011;62840;52.366;5.980;2022-12-29T10:58:59;5.63;;;1.40;;
69573;SDS011;62840;52.366;5.980;2022-12-29T11:01:37;4.78;;;1.17;;
69573;SDS011;62840;52.366;5.980;2022-12-29T11:04:28;2.90;;;0.95;;
69573;SDS011;62840;52.366;5.980;2022-12-29T11:07:15;3.80;;;1.23;;
69573;SDS011;62840;52.366;5.980;2022-12-29T11:09:44;4.68;;;1.00;;
69573;SDS011;62840;52.366;5.980;2022-12-29T11:12:22;5.03;;;1.85;;
69573;SDS011;62840;52.366;5.980;2022-12-29T11:15:11;5.53;;;1.58;;
69573;SDS011;62840;52.366;5.980;2022-12-29T11:17:43;4.53;;;1.20;;
69573;SDS011;62840;52.366;5.980;2022-12-29T11:20:24;4.63;;;1.30;;
69573;SDS011;62840;52.366;5.980;2022-12-29T11:22:56;3.85;;;1.10;;
69573;SDS011;62840;52.366;5.980;2022-12-29T11:25:22;5.60;;;1.30;;
69573;SDS011;62840;52.366;5.980;2022-12-29T11:27:54;6.72;;;1.50;;
69573;SDS011;62840;52.366;5.980;2022-12-29T11:30:22;5.33;;;1.40;;
69573;SDS011;62840;52.366;5.980;2022-12-29T11:32:53;7.80;;;1.17;;
69573;SDS011;62840;52.366;5.980;2022-12-29T11:35:31;5.85;;;1.83;;
69573;SDS011;62840;52.366;5.980;2022-12-29T11:38:00;5.78;;;1.30;;
69573;SDS011;62840;52.366;5.980;2022-12-29T11:40:29;6.93;;;1.80;;
69573;SDS011;62840;52.366;5.980;2022-12-29T11:42:55;4.73;;;1.07;;
69573;SDS011;62840;52.366;5.980;2022-12-29T11:45:25;5.40;;;1.67;;
69573;SDS011;62840;52.366;5.980;2022-12-29T11:47:55;4.70;;;1.30;;
69573;SDS011;62840;52.366;5.980;2022-12-29T11:50:26;5.78;;;1.50;;
69573;SDS011;62840;52.366;5.980;2022-12-29T11:52:59;6.28;;;1.60;;
69573;SDS011;62840;52.366;5.980;2022-12-29T11:55:29;5.67;;;1.70;;
69573;SDS011;62840;52.366;5.980;2022-12-29T11:57:57;5.30;;;1.27;;
69573;SDS011;62840;52.366;5.980;2022-12-29T12:00:27;6.68;;;1.70;;
69573;SDS011;62840;52.366;5.980;2022-12-29T12:03:00;3.90;;;1.73;;
69573;SDS011;62840;52.366;5.980;2022-12-29T12:05:36;6.15;;;1.60;;
69573;SDS011;62840;52.366;5.980;2022-12-29T12:08:09;8.57;;;1.53;;
69573;SDS011;62840;52.366;5.980;2022-12-29T12:10:42;7.22;;;1.25;;
69573;SDS011;62840;52.366;5.980;2022-12-29T12:13:17;5.43;;;1.20;;
69573;SDS011;62840;52.366;5.980;2022-12-29T12:15:52;8.85;;;1.58;;
69573;SDS011;62840;52.366;5.980;2022-12-29T12:21:18;8.40;;;1.60;;
69573;SDS011;62840;52.366;5.980;2022-12-29T12:23:56;6.40;;;1.67;;
69573;SDS011;62840;52.366;5.980;2022-12-29T12:26:50;6.82;;;1.98;;
69573;SDS011;62840;52.366;5.980;2022-12-29T12:29:27;7.32;;;1.45;;
69573;SDS011;62840;52.366;5.980;2022-12-29T12:32:05;6.88;;;1.67;;
69573;SDS011;62840;52.366;5.980;2022-12-29T12:34:43;6.43;;;1.33;;
69573;SDS011;62840;52.366;5.980;2022-12-29T12:40:28;7.38;;;1.90;;
69573;SDS011;62840;52.366;5.980;2022-12-29T12:43:16;7.65;;;2.00;;
69573;SDS011;62840;52.366;5.980;2022-12-29T12:46:08;6.90;;;1.75;;
69573;SDS011;62840;52.366;5.980;2022-12-29T12:49:07;6.77;;;1.43;;
69573;SDS011;62840;52.366;5.980;2022-12-29T12:52:00;5.45;;;1.42;;
69573;SDS011;62840;52.366;5.980;2022-12-29T12:54:49;8.40;;;1.80;;
69573;SDS011;62840;52.366;5.980;2022-12-29T12:57:40;8.85;;;1.48;;
69573;SDS011;62840;52.366;5.980;2022-12-29T13:00:19;10.15;;;1.80;;
69573;SDS011;62840;52.366;5.980;2022-12-29T13:02:49;8.73;;;2.37;;
69573;SDS011;62840;52.366;5.980;2022-12-29T13:08:44;7.68;;;1.90;;
69573;SDS011;62840;52.366;5.980;2022-12-29T13:11:46;5.38;;;1.77;;
69573;SDS011;62840;52.366;5.980;2022-12-29T13:14:29;9.02;;;1.70;;
69573;SDS011;62840;52.366;5.980;2022-12-29T13:17:18;7.40;;;1.50;;
69573;SDS011;62840;52.366;5.980;2022-12-29T13:19:59;7.95;;;1.38;;
69573;SDS011;62840;52.366;5.980;2022-12-29T13:22:46;10.35;;;1.95;;
69573;SDS011;62840;52.366;5.980;2022-12-29T13:25:26;8.32;;;1.50;;
69573;SDS011;62840;52.366;5.980;2022-12-29T13:28:06;8.55;;;1.88;;
69573;SDS011;62840;52.366;5.980;2022-12-29T13:30:43;10.00;;;1.70;;
69573;SDS011;62840;52.366;5.980;2022-12-29T13:33:20;12.18;;;1.90;;
69573;SDS011;62840;52.366;5.980;2022-12-29T13:35:59;8.18;;;1.70;;
69573;SDS011;62840;52.366;5.980;2022-12-29T13:38:32;5.75;;;1.38;;
69573;SDS011;62840;52.366;5.980;2022-12-29T13:41:05;7.03;;;1.58;;
69573;SDS011;62840;52.366;5.980;2022-12-29T13:43:39;7.90;;;1.70;;
69573;SDS011;62840;52.366;5.980;2022-12-29T13:46:10;8.25;;;2.05;;
69573;SDS011;62840;52.366;5.980;2022-12-29T13:48:46;8.70;;;1.80;;
69573;SDS011;62840;52.366;5.980;2022-12-29T13:51:20;12.73;;;2.00;;
69573;SDS011;62840;52.366;5.980;2022-12-29T13:53:55;6.43;;;1.60;;
69573;SDS011;62840;52.366;5.980;2022-12-29T13:56:45;7.30;;;1.70;;
69573;SDS011;62840;52.366;5.980;2022-12-29T13:59:25;9.45;;;1.90;;
69573;SDS011;62840;52.366;5.980;2022-12-29T14:02:08;6.72;;;1.90;;
69573;SDS011;62840;52.366;5.980;2022-12-29T14:04:56;4.95;;;1.30;;
69573;SDS011;62840;52.366;5.980;2022-12-29T14:07:24;8.60;;;1.88;;
69573;SDS011;62840;52.366;5.980;2022-12-29T14:09:52;9.83;;;1.77;;
69573;SDS011;62840;52.366;5.980;2022-12-29T14:12:30;8.98;;;1.77;;
69573;SDS011;62840;52.366;5.980;2022-12-29T14:15:13;7.97;;;1.80;;
69573;SDS011;62840;52.366;5.980;2022-12-29T14:17:59;5.93;;;1.42;;
69573;SDS011;62840;52.366;5.980;2022-12-29T14:20:35;6.63;;;1.77;;
69573;SDS011;62840;52.366;5.980;2022-12-29T14:23:15;6.83;;;1.27;;
69573;SDS011;62840;52.366;5.980;2022-12-29T14:25:53;6.72;;;1.40;;
69573;SDS011;62840;52.366;5.980;2022-12-29T14:28:37;6.47;;;1.90;;
69573;SDS011;62840;52.366;5.980;2022-12-29T14:31:17;7.97;;;1.52;;
69573;SDS011;62840;52.366;5.980;2022-12-29T14:34:15;6.07;;;1.42;;
69573;SDS011;62840;52.366;5.980;2022-12-29T14:36:53;8.43;;;1.80;;
69573;SDS011;62840;52.366;5.980;2022-12-29T14:39:28;8.15;;;1.60;;
69573;SDS011;62840;52.366;5.980;2022-12-29T14:42:03;7.43;;;2.00;;
69573;SDS011;62840;52.366;5.980;2022-12-29T14:44:31;7.63;;;1.60;;
69573;SDS011;62840;52.366;5.980;2022-12-29T14:47:01;5.95;;;1.60;;
69573;SDS011;62840;52.366;5.980;2022-12-29T14:49:33;7.57;;;1.40;;
69573;SDS011;62840;52.366;5.980;2022-12-29T14:52:13;6.78;;;1.80;;
69573;SDS011;62840;52.366;5.980;2022-12-29T14:54:48;7.05;;;2.28;;
69573;SDS011;62840;52.366;5.980;2022-12-29T14:57:25;7.90;;;1.70;;
69573;SDS011;62840;52.366;5.980;2022-12-29T14:59:58;7.55;;;2.05;;
69573;SDS011;62840;52.366;5.980;2022-12-29T15:02:36;9.70;;;1.73;;
69573;SDS011;62840;52.366;5.980;2022-12-29T15:05:22;9.15;;;2.00;;
69573;SDS011;62840;52.366;5.980;2022-12-29T15:07:55;8.02;;;2.05;;
69573;SDS011;62840;52.366;5.980;2022-12-29T15:10:24;5.07;;;1.63;;
69573;SDS011;62840;52.366;5.980;2022-12-29T15:13:02;8.68;;;1.60;;
69573;SDS011;62840;52.366;5.980;2022-12-29T15:15:38;5.43;;;1.30;;
69573;SDS011;62840;52.366;5.980;2022-12-29T15:18:20;4.30;;;1.00;;
69573;SDS011;62840;52.366;5.980;2022-12-29T15:20:50;6.90;;;1.60;;
69573;SDS011;62840;52.366;5.980;2022-12-29T15:23:20;5.65;;;1.27;;
69573;SDS011;62840;52.366;5.980;2022-12-29T15:25:47;4.63;;;1.15;;
69573;SDS011;62840;52.366;5.980;2022-12-29T15:28:20;4.82;;;1.05;;
69573;SDS011;62840;52.366;5.980;2022-12-29T15:30:50;5.63;;;1.48;;
69573;SDS011;62840;52.366;5.980;2022-12-29T15:33:22;4.35;;;1.02;;